Terminal Aerodrome Forecast
Issued by NWS

Home | Current Version | Previous Version | Text Only | Print | Product List | Glossary On
Versions: 1 2 3 4 5 6 7 8 9 10 11 12 13 14 15 16 17
000
FTUS46 KMTR 211120
TAFSNS
TAF
KSNS 211120Z 2112/2212 VRB03KT P6SM OVC005
      TEMPO 2115/2117 SCT008
     FM211700 29012KT P6SM FEW015
     FM220300 29008KT P6SM FEW012
     FM220800 VRB03KT P6SM SCT010=

USA.gov is the U.S. government's official web portal to all federal, state and local government web resources and services.